Observations for Trim Market St
| Time | AQI | Temp °C | Hum % | Pres Pa | CO μg/m³ | H₂S μg/m³ | NO μg/m³ | NO₂ μg/m³ | O₃ μg/m³ | SO₂ μg/m³ | PM1 μg/m³ | PM2.5 μg/m³ | PM10 μg/m³ |
|---|---|---|---|---|---|---|---|---|---|---|---|---|---|
| Monday 24 August 2026 | |||||||||||||
| 02:26 | 2 | 10 | 75 | 50,614 | 0.54 | 0 | 3.89 | 12.35 | 21.78 | 0 | 2.85 | 4.23 | 8.13 |
| 02:25 | 2 | 10 | 76 | 50,641 | 0.53 | 0 | 4.63 | 12.37 | 21.14 | 0 | 2.85 | 4.71 | 7.53 |
| 02:24 | 2 | 10 | 76 | 50,658 | 0.53 | 0 | 5.44 | 12.52 | 20.52 | 0 | 2.85 | 4.23 | 6.94 |
| 02:23 | 2 | 10 | 75 | 50,676 | 0.54 | 0 | 4.97 | 12.96 | 20.23 | 0 | 3.56 | 4.23 | 6.94 |
| 02:22 | 2 | 10 | 75 | 50,698 | 0.55 | 0 | 5.69 | 12.21 | 22.2 | 0 | 4.28 | 4.71 | 8.13 |
| 02:21 | 2 | 10 | 75 | 50,726 | 0.55 | 0 | 6.32 | 12.81 | 22.17 | 0 | 1.43 | 3.76 | 6.94 |
| 02:20 | 2 | 10 | 75 | 50,756 | 0.55 | 0 | 5.55 | 13.32 | 20.56 | 0 | 3.56 | 5.19 | 8.72 |
| 02:19 | 2 | 10.1 | 75 | 50,779 | 0.54 | 0 | 4.64 | 12.27 | 24.06 | 0 | 3.56 | 4.71 | 7.53 |
| 02:18 | 2 | 10.1 | 75 | 50,809 | 0.54 | 0 | 5.15 | 12.27 | 22.9 | 0 | 3.56 | 5.19 | 9.31 |
| 02:17 | 2 | 10.1 | 75 | 50,846 | 0.54 | 0 | 4.9 | 12.42 | 23.65 | 0 | 3.56 | 4.71 | 8.13 |
| 02:16 | 2 | 10.1 | 75 | 50,860 | 0.54 | 0 | 4.2 | 12.27 | 23.47 | 0 | 4.28 | 5.19 | 8.13 |
| 02:15 | 2 | 10.1 | 75 | 50,864 | 0.55 | 0 | 4.28 | 12.55 | 23.3 | 0 | 3.56 | 4.24 | 6.94 |
| 02:14 | 2 | 10.1 | 75 | 50,846 | 0.55 | 0 | 4.89 | 11.53 | 28.14 | 0 | 4.28 | 5.68 | 8.72 |
| 02:12 | 2 | 10.1 | 75 | 50,828 | 0.53 | 0 | 4.17 | 12.11 | 23.17 | 0 | 2.85 | 4.24 | 6.94 |
| 02:09 | 2 | 10.2 | 75 | 50,809 | 0.53 | 0 | 4 | 12.17 | 24.06 | 0 | 2.85 | 4.72 | 9.91 |
| 02:01 | 2 | 10.3 | 75 | 50,770 | 0.53 | 0 | 4.24 | 13.17 | 25.91 | 0 | 2.85 | 5.68 | 8.72 |
| 01:59 | 2 | 10.3 | 75 | 50,793 | 0.53 | 0 | 5.4 | 11.81 | 29.1 | 0 | 3.56 | 4.73 | 8.13 |
| 01:57 | 2 | 10.3 | 75 | 50,766 | 0.53 | 0 | 5.15 | 12.92 | 25.86 | 0 | 2.85 | 4.73 | 9.32 |
| 01:56 | 2 | 10.3 | 75 | 50,802 | 0.53 | 0 | 4.9 | 13.15 | 26.26 | 0 | 3.56 | 5.21 | 8.13 |
| 01:55 | 2 | 10.3 | 75 | 50,835 | 0.52 | 0 | 4.79 | 13.15 | 25.72 | 0 | 3.56 | 3.77 | 6.93 |